Time;durP1;ratioP1;P1;durP2;ratioP2;P2;SDS_P1;SDS_P2;PMS_P1;PMS_P2;Temp;Humidity;BMP_temperature;BMP_pressure;BME280_temperature;BME280_humidity;BME280_pressure;Samples;Min_cycle;Max_cycle;Signal;HPM_P1;HPM_P2
2022/05/16 00:02:06;;;;;;;2.40;0.77;;;8.60;99.90;;;;;;5000577;28;20061;-87
2022/05/16 00:04:36;;;;;;;2.95;0.30;;;8.50;99.90;;;;;;5004542;28;20049;-87
2022/05/16 00:07:04;;;;;;;;;;;8.50;99.90;;;;;;4984794;28;20066;-87
2022/05/16 00:09:31;;;;;;;24.33;2.05;;;8.40;99.90;;;;;;4962510;28;19956;-87
2022/05/16 00:11:58;;;;;;;1.83;0.70;;;8.40;99.90;;;;;;4983923;28;20099;-87
2022/05/16 00:14:25;;;;;;;3.60;0.90;;;8.40;99.90;;;;;;5001264;28;20473;-87
2022/05/16 00:16:52;;;;;;;5.32;0.98;;;8.30;99.90;;;;;;4995479;28;20510;-87
2022/05/16 00:19:19;;;;;;;1.48;0.40;;;8.20;99.90;;;;;;4996780;28;20168;-86
2022/05/16 00:21:46;;;;;;;0.95;0.35;;;8.20;99.90;;;;;;4977815;28;20593;-86
2022/05/16 00:24:13;;;;;;;2.15;0.95;;;8.20;99.90;;;;;;4998069;28;20412;-86
2022/05/16 00:26:40;;;;;;;1.02;0.68;;;8.10;99.90;;;;;;4982952;28;20042;-86
2022/05/16 00:29:07;;;;;;;0.82;0.43;;;8.10;99.90;;;;;;4994212;28;20101;-87
2022/05/16 00:31:35;;;;;;;3.03;0.77;;;8.10;99.90;;;;;;4963366;28;20037;-87
2022/05/16 00:34:02;;;;;;;2.47;0.68;;;8.10;99.90;;;;;;4985794;28;20058;-87
2022/05/16 00:36:29;;;;;;;1.38;1.20;;;8.10;99.90;;;;;;4995346;28;20194;-87
2022/05/16 00:38:56;;;;;;;2.35;0.77;;;8.10;99.90;;;;;;4998868;28;20108;-87
2022/05/16 00:41:23;;;;;;;2.47;1.63;;;8.00;99.90;;;;;;4979871;28;20110;-87
2022/05/16 00:43:53;;;;;;;2.95;1.50;;;8.00;99.90;;;;;;4999717;28;20344;-87
2022/05/16 00:46:21;;;;;;;4.15;1.00;;;7.90;99.90;;;;;;4998682;28;20050;-86
2022/05/16 00:48:49;;;;;;;1.17;0.60;;;7.90;99.90;;;;;;4976528;28;20503;-86
2022/05/16 00:51:24;;;;;;;1.50;0.88;;;7.80;99.90;;;;;;4982303;28;20070;-87
2022/05/16 00:53:57;;;;;;;1.27;0.80;;;7.80;99.90;;;;;;4980461;28;20049;-87
2022/05/16 00:56:27;;;;;;;0.55;0.50;;;7.80;99.90;;;;;;4982268;28;20383;-87
2022/05/16 00:58:55;;;;;;;0.60;0.60;;;7.70;99.90;;;;;;4982930;28;20066;-86
2022/05/16 01:06:56;;;;;;;2.47;1.13;;;7.70;99.90;;;;;;5000421;28;20207;-88
2022/05/16 01:09:24;;;;;;;0.88;0.63;;;7.60;99.90;;;;;;4998898;28;20486;-88
2022/05/16 01:11:52;;;;;;;1.20;0.73;;;7.60;99.90;;;;;;4981999;28;20050;-88
2022/05/16 01:14:54;;;;;;;1.45;0.70;;;7.60;99.90;;;;;;4989514;28;20058;-88
2022/05/16 01:17:21;;;;;;;1.10;0.73;;;7.60;99.90;;;;;;4993444;28;20507;-88
2022/05/16 01:19:50;;;;;;;0.77;0.68;;;7.60;99.90;;;;;;4999038;28;20046;-88
2022/05/16 01:22:49;;;;;;;0.52;0.52;;;7.70;99.90;;;;;;4983490;28;20100;-89
2022/05/16 01:25:22;;;;;;;0.77;0.47;;;7.70;99.90;;;;;;4963587;28;20050;-88
2022/05/16 01:27:55;;;;;;;0.80;0.80;;;7.90;99.90;;;;;;4998819;28;20054;-88
2022/05/16 01:30:26;;;;;;;0.70;0.60;;;7.90;99.90;;;;;;4989235;28;20133;-89
2022/05/16 01:32:53;;;;;;;0.77;0.60;;;7.90;99.90;;;;;;5003506;28;20050;-88
2022/05/16 01:35:23;;;;;;;0.77;0.43;;;8.00;99.90;;;;;;5003633;28;20057;-88
2022/05/16 01:40:37;;;;;;;2.08;1.88;;;8.20;99.90;;;;;;5002679;28;20041;-88
2022/05/16 01:43:05;;;;;;;1.67;0.65;;;8.20;99.90;;;;;;5004651;28;20084;-89
2022/05/16 01:45:33;;;;;;;0.55;0.55;;;8.20;99.90;;;;;;5002000;28;20054;-88
2022/05/16 01:48:00;;;;;;;0.85;0.82;;;8.20;99.90;;;;;;5003311;28;20073;-89
2022/05/16 01:50:27;;;;;;;0.80;0.60;;;8.10;99.90;;;;;;5005852;28;20100;-88
2022/05/16 01:52:54;;;;;;;1.52;0.68;;;8.20;99.90;;;;;;4970112;28;20076;-88
2022/05/16 01:55:21;;;;;;;0.52;0.47;;;8.30;99.90;;;;;;5003956;28;20046;-88
2022/05/16 01:57:49;;;;;;;2.08;0.77;;;8.40;99.90;;;;;;4986007;28;20046;-88
2022/05/16 02:00:17;;;;;;;0.80;0.60;;;8.70;99.90;;;;;;4985423;28;20141;-89
2022/05/16 02:02:45;;;;;;;0.60;0.60;;;8.80;99.90;;;;;;4984637;28;20049;-88
2022/05/16 02:05:15;;;;;;;0.60;0.40;;;8.90;99.90;;;;;;5002953;28;20057;-89
2022/05/16 02:07:43;;;;;;;1.10;0.98;;;8.80;99.90;;;;;;5001282;28;20046;-88
2022/05/16 02:10:13;;;;;;;0.95;0.88;;;8.80;99.90;;;;;;4985893;28;20863;-88
2022/05/16 02:12:40;;;;;;;0.77;0.77;;;8.90;99.90;;;;;;4966082;28;20095;-88
2022/05/16 02:15:10;;;;;;;1.23;0.60;;;8.80;99.90;;;;;;4983413;28;20149;-88
2022/05/16 02:17:37;;;;;;;1.20;0.57;;;8.80;99.90;;;;;;4976156;28;20055;-88
2022/05/16 02:20:05;;;;;;;1.42;0.60;;;8.80;99.90;;;;;;4983575;28;20054;-89
2022/05/16 02:25:18;;;;;;;0.85;0.70;;;8.70;99.90;;;;;;4966528;28;20030;-89
2022/05/16 02:27:47;;;;;;;2.63;0.88;;;8.70;99.90;;;;;;4964580;28;20681;-89
2022/05/16 02:30:14;;;;;;;2.35;0.68;;;8.70;99.90;;;;;;4963744;28;20058;-88
2022/05/16 02:32:41;;;;;;;1.85;0.65;;;8.70;99.90;;;;;;4959986;28;20109;-88
2022/05/16 02:35:09;;;;;;;0.75;0.70;;;8.70;99.90;;;;;;4981906;28;20053;-89
2022/05/16 02:37:36;;;;;;;0.70;0.68;;;8.60;99.90;;;;;;4955184;28;20506;-89
2022/05/16 02:40:05;;;;;;;1.55;0.80;;;8.60;99.90;;;;;;4961745;28;20046;-88
2022/05/16 02:42:32;;;;;;;2.53;1.00;;;8.60;99.90;;;;;;4950078;28;20046;-88
2022/05/16 02:44:59;;;;;;;0.85;0.70;;;8.50;99.90;;;;;;4966827;28;20474;-88
2022/05/16 02:47:26;;;;;;;1.95;0.90;;;8.50;99.90;;;;;;4989429;28;20046;-88
2022/05/16 02:49:53;;;;;;;0.85;0.77;;;8.40;99.90;;;;;;4965875;28;20066;-88
2022/05/16 02:52:20;;;;;;;0.70;0.50;;;8.40;99.90;;;;;;4965274;28;20061;-88
2022/05/16 02:54:47;;;;;;;0.60;0.55;;;8.40;99.90;;;;;;4983305;28;20046;-88
2022/05/16 02:57:14;;;;;;;1.70;1.55;;;8.30;99.90;;;;;;4965829;28;20061;-88
2022/05/16 02:59:41;;;;;;;0.85;0.50;;;8.30;99.90;;;;;;4973620;28;20050;-88
2022/05/16 03:02:10;;;;;;;0.98;0.90;;;8.20;99.90;;;;;;4994520;28;20462;-88
2022/05/16 03:04:38;;;;;;;1.55;0.82;;;8.20;99.90;;;;;;4977050;28;20650;-88
2022/05/16 03:07:06;;;;;;;0.60;0.60;;;8.20;99.90;;;;;;4962728;28;20381;-88
2022/05/16 03:09:33;;;;;;;2.63;0.88;;;8.10;99.90;;;;;;4943839;28;20136;-88
2022/05/16 03:12:01;;;;;;;1.02;1.02;;;8.00;99.90;;;;;;5000665;28;20127;-88
2022/05/16 03:14:28;;;;;;;4.35;0.98;;;8.00;99.90;;;;;;4985357;28;20042;-88
2022/05/16 03:16:55;;;;;;;2.58;1.10;;;7.90;99.90;;;;;;4997685;28;20054;-88
2022/05/16 03:19:22;;;;;;;0.47;0.47;;;7.90;99.90;;;;;;4998225;28;20046;-88
2022/05/16 03:21:49;;;;;;;1.15;0.82;;;7.90;99.90;;;;;;4999818;28;20545;-88
2022/05/16 03:24:16;;;;;;;0.47;0.47;;;7.90;99.90;;;;;;5001187;28;20064;-88
2022/05/16 03:26:46;;;;;;;0.63;0.47;;;7.90;99.90;;;;;;4999662;28;20057;-88
2022/05/16 03:29:14;;;;;;;5.38;0.70;;;7.90;99.90;;;;;;4977261;28;20053;-88
2022/05/16 03:31:41;;;;;;;3.50;0.50;;;7.90;99.90;;;;;;4977309;28;20038;-88
2022/05/16 03:34:11;;;;;;;0.47;0.47;;;7.90;99.90;;;;;;4985088;28;20589;-88
2022/05/16 03:36:39;;;;;;;2.70;1.10;;;8.00;99.90;;;;;;4991605;28;20061;-88
2022/05/16 03:41:52;;;;;;;0.60;0.30;;;8.00;99.90;;;;;;4991531;28;20506;-87
2022/05/16 03:44:20;;;;;;;1.73;0.45;;;8.00;99.90;;;;;;4979752;28;20133;-87
2022/05/16 03:46:47;;;;;;;1.02;0.57;;;8.00;99.90;;;;;;4981727;28;20053;-87
2022/05/16 03:49:15;;;;;;;0.40;0.38;;;8.10;99.90;;;;;;5001935;28;20128;-88
2022/05/16 03:51:42;;;;;;;0.63;0.47;;;8.10;99.90;;;;;;4999386;28;20077;-88
2022/05/16 03:54:09;;;;;;;2.03;0.60;;;8.10;99.90;;;;;;4982219;28;20061;-87
2022/05/16 03:56:36;;;;;;;0.55;0.40;;;8.20;99.90;;;;;;4983914;28;20423;-87
2022/05/16 03:59:04;;;;;;;0.73;0.65;;;8.20;99.90;;;;;;4999276;28;20046;-88
2022/05/16 04:01:32;;;;;;;0.68;0.40;;;8.10;99.90;;;;;;5001733;28;20739;-87
2022/05/16 04:03:59;;;;;;;1.08;0.93;;;8.20;99.90;;;;;;4985840;28;20450;-87
2022/05/16 04:06:27;;;;;;;0.70;0.32;;;8.20;99.90;;;;;;5001577;28;20068;-87
2022/05/16 04:08:54;;;;;;;0.73;0.57;;;8.20;99.90;;;;;;4976849;28;20041;-87
2022/05/16 04:11:22;;;;;;;0.88;0.60;;;8.30;99.90;;;;;;4983831;28;20068;-87
2022/05/16 04:13:49;;;;;;;2.72;0.60;;;8.30;99.90;;;;;;4976098;28;20110;-87
2022/05/16 04:16:16;;;;;;;1.08;0.60;;;8.30;99.90;;;;;;4983195;28;20137;-87
2022/05/16 04:18:44;;;;;;;1.27;0.50;;;8.40;99.90;;;;;;4966225;28;20053;-87
2022/05/16 04:21:12;;;;;;;3.30;0.65;;;8.40;99.90;;;;;;4959099;28;20477;-87
2022/05/16 04:23:40;;;;;;;1.48;0.40;;;8.50;99.90;;;;;;4981013;28;20452;-87
2022/05/16 04:26:07;;;;;;;2.28;0.50;;;8.50;99.90;;;;;;4982151;28;20049;-87
2022/05/16 04:28:36;;;;;;;0.40;0.30;;;8.60;99.90;;;;;;4983100;28;20505;-88
2022/05/16 04:31:03;;;;;;;0.65;0.40;;;8.70;99.90;;;;;;4982168;28;20045;-87
2022/05/16 04:33:33;;;;;;;0.75;0.63;;;8.80;99.90;;;;;;4980811;28;20069;-88
2022/05/16 04:36:00;;;;;;;1.50;0.50;;;8.80;99.90;;;;;;4999875;28;20104;-88
2022/05/16 04:38:27;;;;;;;1.75;0.30;;;8.80;99.90;;;;;;4983385;28;20046;-88
2022/05/16 04:43:41;;;;;;;0.45;0.30;;;8.90;99.90;;;;;;4998181;28;20085;-88
2022/05/16 04:46:08;;;;;;;0.55;0.32;;;8.90;99.90;;;;;;4983424;28;20170;-88
2022/05/16 04:48:35;;;;;;;0.68;0.30;;;8.90;99.90;;;;;;5001341;28;20050;-88
2022/05/16 04:51:03;;;;;;;0.32;0.30;;;9.00;99.90;;;;;;5000928;28;20128;-88
2022/05/16 04:53:30;;;;;;;1.45;0.65;;;9.00;99.90;;;;;;4993327;28;20061;-88
2022/05/16 04:55:57;;;;;;;2.38;0.35;;;9.00;99.90;;;;;;5000299;28;20184;-88
2022/05/16 04:58:24;;;;;;;1.80;0.65;;;9.00;99.90;;;;;;5000518;28;20159;-88
2022/05/16 05:00:51;;;;;;;2.25;0.77;;;9.10;99.90;;;;;;4972274;28;20054;-88
2022/05/16 05:03:18;;;;;;;2.58;0.40;;;9.10;99.90;;;;;;4966972;28;20050;-88
2022/05/16 05:05:45;;;;;;;1.20;0.77;;;9.20;99.90;;;;;;4985260;28;20525;-88
2022/05/16 05:08:12;;;;;;;1.15;0.60;;;9.20;99.90;;;;;;4986588;28;20049;-88
2022/05/16 05:16:20;;;;;;;0.63;0.40;;;9.20;99.90;;;;;;4980914;28;20062;-88
2022/05/16 05:18:47;;;;;;;1.10;0.63;;;9.20;99.90;;;;;;4967170;28;20052;-88
2022/05/16 05:21:14;;;;;;;1.20;0.75;;;9.30;99.90;;;;;;4984988;28;20054;-87
2022/05/16 05:23:41;;;;;;;1.75;1.30;;;9.30;99.90;;;;;;4960292;28;20058;-88
2022/05/16 05:26:10;;;;;;;0.75;0.45;;;9.30;99.90;;;;;;4968554;28;20046;-87
2022/05/16 05:28:38;;;;;;;2.92;0.50;;;9.30;99.90;;;;;;4949536;28;20069;-87
2022/05/16 05:31:11;;;;;;;1.88;0.52;;;9.40;99.90;;;;;;4966024;28;20055;-88
2022/05/16 05:33:39;;;;;;;12.75;0.85;;;9.30;99.90;;;;;;4957075;28;20046;-88
2022/05/16 05:36:06;;;;;;;1.05;0.50;;;9.30;99.90;;;;;;4965021;28;20050;-89
2022/05/16 05:38:36;;;;;;;2.42;1.50;;;9.40;99.90;;;;;;4954492;28;20117;-87
2022/05/16 05:41:05;;;;;;;3.75;1.55;;;9.40;99.90;;;;;;4951224;28;20141;-86
2022/05/16 05:43:32;;;;;;;4.80;1.05;;;9.40;99.90;;;;;;4975099;28;20401;-87
2022/05/16 05:46:02;;;;;;;3.55;1.75;;;9.40;99.90;;;;;;4969631;28;20827;-88
2022/05/16 05:48:29;;;;;;;2.35;0.68;;;9.40;99.90;;;;;;4975330;28;20065;-86
2022/05/16 05:50:56;;;;;;;2.03;0.85;;;9.30;99.90;;;;;;4967595;28;20054;-84
2022/05/16 05:53:23;;;;;;;1.40;0.70;;;9.40;99.90;;;;;;4961592;28;20117;-85
2022/05/16 05:55:51;;;;;;;1.38;1.10;;;9.50;99.90;;;;;;4952116;28;20046;-86
2022/05/16 05:58:17;;;;;;;5.78;1.45;;;9.50;99.90;;;;;;4938097;28;20117;-86
2022/05/16 06:00:45;;;;;;;0.95;0.52;;;9.50;99.90;;;;;;4961852;28;20133;-84
2022/05/16 06:03:13;;;;;;;2.60;0.40;;;9.50;99.90;;;;;;4968556;28;20051;-86
2022/05/16 06:05:40;;;;;;;1.42;0.40;;;9.50;99.90;;;;;;4962104;28;20058;-85
2022/05/16 06:08:07;;;;;;;2.65;0.60;;;9.40;99.90;;;;;;4964977;28;20677;-85
2022/05/16 06:10:34;;;;;;;1.08;0.75;;;9.40;99.90;;;;;;4950790;28;20562;-85
2022/05/16 06:13:02;;;;;;;1.63;0.95;;;9.40;99.90;;;;;;4996206;28;20041;-85
2022/05/16 06:15:29;;;;;;;3.33;0.93;;;9.50;99.90;;;;;;4995502;28;20170;-85
2022/05/16 06:17:55;;;;;;;2.88;0.63;;;9.50;99.90;;;;;;4966000;28;20097;-85
2022/05/16 06:20:22;;;;;;;2.35;0.60;;;9.50;99.90;;;;;;4984966;28;20050;-85
2022/05/16 06:22:49;;;;;;;1.27;0.77;;;9.50;99.90;;;;;;4983123;28;20046;-85
2022/05/16 06:25:31;;;;;;;2.85;0.40;;;9.50;99.90;;;;;;4986335;28;20069;-86
2022/05/16 06:28:10;;;;;;;3.60;0.73;;;9.40;99.90;;;;;;4973808;28;20142;-86
2022/05/16 06:30:41;;;;;;;2.40;2.05;;;9.30;99.90;;;;;;4998062;28;20443;-86
2022/05/16 06:33:10;;;;;;;1.30;1.20;;;9.30;99.90;;;;;;5003242;28;20067;-86
2022/05/16 06:35:38;;;;;;;2.55;0.77;;;9.30;99.90;;;;;;5000344;28;20046;-86
2022/05/16 06:38:13;;;;;;;0.60;0.50;;;9.30;99.90;;;;;;5001852;28;20424;-86
2022/05/16 06:40:43;;;;;;;2.75;1.17;;;9.30;99.90;;;;;;4984965;28;20062;-86
2022/05/16 06:43:10;;;;;;;3.33;0.67;;;9.30;99.90;;;;;;5002229;28;20633;-85
2022/05/16 06:45:37;;;;;;;3.17;1.55;;;9.20;99.90;;;;;;4983074;28;20290;-85
2022/05/16 06:48:05;;;;;;;1.52;0.57;;;9.20;99.90;;;;;;4984669;28;20148;-85
2022/05/16 06:50:33;;;;;;;1.02;0.80;;;9.20;99.90;;;;;;5002981;28;20153;-85
2022/05/16 06:53:03;;;;;;;0.80;0.68;;;9.20;99.90;;;;;;4985801;28;20050;-85
2022/05/16 06:55:30;;;;;;;2.43;0.90;;;9.20;99.90;;;;;;4980634;28;20050;-87
2022/05/16 06:57:58;;;;;;;2.55;0.50;;;9.20;99.90;;;;;;5002389;28;20361;-85
2022/05/16 07:00:26;;;;;;;1.40;0.88;;;9.10;99.90;;;;;;4982843;28;20054;-86
2022/05/16 07:02:53;;;;;;;4.22;0.60;;;9.10;99.90;;;;;;4988750;28;20038;-86
2022/05/16 07:05:41;;;;;;;0.95;0.57;;;9.00;99.90;;;;;;5002563;28;20506;-85
2022/05/16 07:08:08;;;;;;;2.15;1.95;;;9.00;99.90;;;;;;5006684;28;20082;-86
2022/05/16 07:10:36;;;;;;;2.17;1.17;;;9.10;99.90;;;;;;4989380;28;20042;-87
2022/05/16 07:13:03;;;;;;;4.63;1.23;;;9.20;99.90;;;;;;5003101;28;20042;-85
2022/05/16 07:15:31;;;;;;;1.90;0.77;;;9.20;99.90;;;;;;5005525;28;20108;-87
2022/05/16 07:17:59;;;;;;;1.60;0.75;;;9.20;99.90;;;;;;4985564;28;20149;-87
2022/05/16 07:20:27;;;;;;;2.33;1.45;;;9.20;99.90;;;;;;4999540;28;20470;-84
2022/05/16 07:22:54;;;;;;;3.40;0.98;;;9.20;99.90;;;;;;5003036;28;20054;-87
2022/05/16 07:25:29;;;;;;;3.35;1.33;;;9.30;99.90;;;;;;4974562;28;20101;-84
2022/05/16 07:28:01;;;;;;;4.95;1.00;;;9.20;99.90;;;;;;4985143;28;20048;-87
2022/05/16 07:30:35;;;;;;;5.65;1.02;;;9.20;99.90;;;;;;4976358;28;20069;-85
2022/05/16 07:33:03;;;;;;;2.70;1.05;;;9.20;99.90;;;;;;4994702;28;20654;-86
2022/05/16 07:35:33;;;;;;;4.22;0.60;;;9.30;99.90;;;;;;4982643;28;20054;-85
2022/05/16 07:38:00;;;;;;;2.20;0.95;;;9.30;99.90;;;;;;4998058;28;20050;-86
2022/05/16 07:40:30;;;;;;;1.80;1.65;;;9.30;99.90;;;;;;4989098;28;20395;-85
2022/05/16 07:42:58;;;;;;;2.83;0.98;;;9.40;99.90;;;;;;4986002;28;20050;-85
2022/05/16 07:45:26;;;;;;;1.45;0.60;;;9.40;99.90;;;;;;4980772;28;20046;-86
2022/05/16 07:47:54;;;;;;;4.40;1.13;;;9.40;99.90;;;;;;4987276;28;20038;-85
2022/05/16 07:50:23;;;;;;;1.55;0.80;;;9.40;99.90;;;;;;4981991;28;20065;-85
2022/05/16 07:52:50;;;;;;;1.95;1.05;;;9.30;99.90;;;;;;5004531;28;20042;-85
2022/05/16 07:55:21;;;;;;;4.72;1.05;;;9.30;99.90;;;;;;5003211;28;20052;-85
2022/05/16 07:57:48;;;;;;;;;;;9.40;99.90;;;;;;4988416;28;20042;-88
2022/05/16 08:00:16;;;;;;;3.35;1.25;;;9.30;99.90;;;;;;5002772;28;20032;-86
2022/05/16 08:02:43;;;;;;;0.85;0.43;;;9.30;99.90;;;;;;4988211;28;20038;-86
2022/05/16 08:05:14;;;;;;;3.00;1.13;;;9.30;99.90;;;;;;4970714;28;20145;-85
2022/05/16 08:10:31;;;;;;;1.70;0.73;;;9.30;99.90;;;;;;5005017;28;20050;-85
2022/05/16 08:13:00;;;;;;;;;;;9.30;99.90;;;;;;4991640;28;20037;-87
2022/05/16 08:15:28;;;;;;;1.27;0.80;;;9.10;99.90;;;;;;4985320;28;19921;-87
2022/05/16 08:17:57;;;;;;;3.10;1.08;;;9.10;99.90;;;;;;4984747;28;20463;-87
2022/05/16 08:20:25;;;;;;;3.13;0.77;;;9.10;99.90;;;;;;4989656;28;20573;-86
2022/05/16 08:22:52;;;;;;;1.95;1.15;;;9.20;99.90;;;;;;4989035;28;20514;-87
2022/05/16 08:25:20;;;;;;;4.97;1.02;;;9.30;99.90;;;;;;4969125;28;20054;-87
2022/05/16 08:27:50;;;;;;;7.55;1.02;;;9.20;99.90;;;;;;4979142;28;20493;-86
2022/05/16 08:30:18;;;;;;;1.83;0.80;;;9.20;99.90;;;;;;4988817;28;20427;-86
2022/05/16 08:32:46;;;;;;;1.60;0.77;;;9.30;99.90;;;;;;4997487;28;20109;-86
2022/05/16 08:35:14;;;;;;;3.05;1.30;;;9.40;99.90;;;;;;5002939;28;20081;-85
2022/05/16 08:40:45;;;;;;;1.13;0.60;;;9.30;99.90;;;;;;4980535;28;20050;-85
2022/05/16 08:43:21;;;;;;;2.22;0.93;;;9.50;99.90;;;;;;5003128;28;20053;-85
2022/05/16 08:46:02;;;;;;;1.25;0.70;;;9.40;99.90;;;;;;4996546;28;20061;-85
2022/05/16 08:48:36;;;;;;;2.25;0.82;;;9.50;99.90;;;;;;5007831;28;20097;-85
2022/05/16 08:51:20;;;;;;;3.72;0.80;;;9.50;99.90;;;;;;5004688;28;20049;-86
2022/05/16 08:54:17;;;;;;;2.20;0.80;;;9.50;99.90;;;;;;4981131;28;20050;-85
2022/05/16 08:56:46;;;;;;;2.92;1.00;;;9.50;99.90;;;;;;4986406;28;20068;-87
2022/05/16 08:59:18;;;;;;;2.35;0.75;;;9.50;99.90;;;;;;4997746;28;20572;-86
2022/05/16 09:02:00;;;;;;;2.05;0.60;;;9.50;99.90;;;;;;4988184;28;20100;-86
2022/05/16 09:04:46;;;;;;;2.38;0.90;;;9.60;99.90;;;;;;4997994;28;20044;-85
2022/05/16 09:07:20;;;;;;;3.22;1.25;;;9.50;99.90;;;;;;4999871;28;20050;-86
2022/05/16 09:10:19;;;;;;;6.10;1.02;;;9.60;99.90;;;;;;4992992;28;20056;-86
2022/05/16 09:12:52;;;;;;;2.05;0.90;;;9.50;99.90;;;;;;5001085;28;20041;-86
2022/05/16 09:15:46;;;;;;;1.52;0.47;;;9.60;99.90;;;;;;4985944;28;20046;-86
2022/05/16 09:18:45;;;;;;;2.33;0.90;;;9.70;99.90;;;;;;4978732;28;20169;-85
2022/05/16 09:21:39;;;;;;;0.75;0.70;;;9.80;99.90;;;;;;4998363;28;20058;-85
2022/05/16 09:24:27;;;;;;;2.60;1.08;;;9.80;99.90;;;;;;5005401;28;20050;-86
2022/05/16 09:26:58;;;;;;;1.52;0.60;;;9.80;99.90;;;;;;5003049;28;20073;-86
2022/05/16 09:29:39;;;;;;;4.22;0.90;;;9.70;99.90;;;;;;4998799;28;20042;-86
2022/05/16 09:32:14;;;;;;;3.30;0.90;;;9.60;99.90;;;;;;4979490;28;20129;-86
2022/05/16 09:34:41;;;;;;;3.25;1.17;;;9.60;99.90;;;;;;4995732;28;20132;-86
2022/05/16 09:37:09;;;;;;;1.25;0.73;;;9.60;99.90;;;;;;4996512;28;20045;-87
2022/05/16 09:39:36;;;;;;;2.03;0.98;;;9.80;99.90;;;;;;4999628;28;20823;-85
2022/05/16 09:42:26;;;;;;;4.53;1.05;;;9.90;99.90;;;;;;4999502;28;20115;-87
2022/05/16 09:45:03;;;;;;;1.92;0.93;;;9.90;99.90;;;;;;4977416;28;20108;-87
2022/05/16 09:47:36;;;;;;;1.60;0.85;;;10.00;99.90;;;;;;4998422;28;20038;-87
2022/05/16 09:50:02;;;;;;;1.80;0.75;;;10.10;99.90;;;;;;4997682;28;20149;-88
2022/05/16 09:52:39;;;;;;;2.53;0.80;;;9.90;99.90;;;;;;4982094;28;20518;-87
2022/05/16 09:55:14;;;;;;;1.42;1.27;;;9.90;99.90;;;;;;5003581;28;20657;-88
2022/05/16 09:57:49;;;;;;;1.10;0.73;;;9.90;99.90;;;;;;4984019;28;20050;-87
2022/05/16 10:00:42;;;;;;;1.65;1.00;;;9.60;99.90;;;;;;4992256;28;20053;-88
2022/05/16 10:03:23;;;;;;;5.18;0.95;;;9.80;99.90;;;;;;4986540;28;20041;-88
2022/05/16 10:05:53;;;;;;;1.48;0.40;;;10.00;99.90;;;;;;4963792;28;20049;-86
2022/05/16 10:08:45;;;;;;;0.88;0.88;;;10.10;99.90;;;;;;5001469;28;20149;-86
2022/05/16 10:11:18;;;;;;;1.48;0.98;;;10.10;99.90;;;;;;4993803;28;20081;-86
2022/05/16 10:13:45;;;;;;;2.75;0.90;;;9.90;99.90;;;;;;5000600;28;20970;-86
2022/05/16 10:16:14;;;;;;;1.55;0.70;;;9.80;99.90;;;;;;5006114;28;20135;-86
2022/05/16 10:19:16;;;;;;;2.70;0.75;;;9.90;99.90;;;;;;5001761;28;20053;-86
2022/05/16 10:21:53;;;;;;;2.20;0.90;;;9.80;99.90;;;;;;4967004;28;20545;-87
2022/05/16 10:24:25;;;;;;;1.45;0.68;;;9.80;99.90;;;;;;4977578;28;20061;-86
2022/05/16 10:26:55;;;;;;;2.78;1.10;;;9.70;99.90;;;;;;4967581;28;20042;-86
2022/05/16 10:29:27;;;;;;;1.95;1.00;;;9.90;99.90;;;;;;5001843;28;20030;-86
2022/05/16 10:35:03;;;;;;;3.00;0.68;;;10.00;99.90;;;;;;4999777;28;20632;-85
2022/05/16 10:37:37;;;;;;;1.25;0.63;;;10.00;99.90;;;;;;4959644;28;20148;-87
2022/05/16 10:40:10;;;;;;;1.77;0.75;;;10.00;99.90;;;;;;4994676;28;20053;-86
2022/05/16 10:43:19;;;;;;;0.82;0.80;;;10.00;99.90;;;;;;4963855;28;20601;-86
2022/05/16 10:45:53;;;;;;;1.35;0.50;;;10.20;99.90;;;;;;4955305;28;20138;-87
2022/05/16 10:48:44;;;;;;;1.23;0.68;;;10.20;99.90;;;;;;4983667;28;20053;-88
2022/05/16 10:51:15;;;;;;;5.45;1.20;;;10.30;99.90;;;;;;4976887;28;20108;-88
2022/05/16 10:54:04;;;;;;;3.47;1.75;;;10.40;99.90;;;;;;4983418;28;20460;-85
2022/05/16 10:56:49;;;;;;;1.83;0.68;;;10.00;99.90;;;;;;4975192;28;20173;-86
2022/05/16 10:59:25;;;;;;;0.95;0.73;;;9.70;99.90;;;;;;4966839;28;20049;-85
2022/05/16 11:02:03;;;;;;;0.88;0.68;;;10.00;99.90;;;;;;4981280;28;20124;-85
2022/05/16 11:05:09;;;;;;;1.10;1.00;;;10.20;99.90;;;;;;4969004;28;20836;-87
2022/05/16 11:07:53;;;;;;;1.45;0.50;;;10.30;99.90;;;;;;4980812;28;20049;-87
2022/05/16 11:10:38;;;;;;;4.47;0.77;;;10.40;99.90;;;;;;4979936;28;20053;-85
2022/05/16 11:13:39;;;;;;;1.80;1.20;;;10.40;99.90;;;;;;4977788;28;20175;-86
2022/05/16 11:16:20;;;;;;;2.55;0.88;;;10.50;99.90;;;;;;4977222;28;20077;-87
2022/05/16 11:18:58;;;;;;;0.95;0.60;;;10.20;99.90;;;;;;4976277;28;20049;-87
2022/05/16 11:21:48;;;;;;;2.63;0.60;;;10.40;99.90;;;;;;4953445;28;20140;-87
2022/05/16 11:24:47;;;;;;;6.47;1.67;;;10.20;99.90;;;;;;4981205;28;20052;-87
2022/05/16 11:27:51;;;;;;;1.42;0.60;;;10.20;99.90;;;;;;4988927;28;20414;-86
2022/05/16 11:30:55;;;;;;;0.95;0.70;;;10.40;99.90;;;;;;4980355;28;20160;-87
2022/05/16 11:33:50;;;;;;;3.30;1.08;;;10.50;99.90;;;;;;4998896;28;20142;-87
2022/05/16 11:36:31;;;;;;;2.38;1.13;;;10.50;99.90;;;;;;4979204;28;20056;-87
2022/05/16 11:39:18;;;;;;;2.00;0.68;;;10.50;99.90;;;;;;4999662;28;20054;-86
2022/05/16 11:42:17;;;;;;;5.88;1.02;;;10.50;99.90;;;;;;4987844;28;20050;-86
2022/05/16 11:44:57;;;;;;;0.82;0.38;;;10.60;99.90;;;;;;4959907;28;20054;-86
2022/05/16 11:47:37;;;;;;;6.50;0.80;;;10.60;99.90;;;;;;4967911;28;20073;-87
2022/05/16 11:50:38;;;;;;;0.85;0.40;;;10.50;99.90;;;;;;4976616;28;20061;-88
2022/05/16 11:53:32;;;;;;;1.80;0.90;;;10.60;97.70;;;;;;4981029;28;20051;-87
2022/05/16 12:01:39;;;;;;;0.55;0.55;;;10.90;98.60;;;;;;4966425;28;20568;-88
2022/05/16 12:04:11;;;;;;;2.63;1.13;;;10.90;97.60;;;;;;4980266;28;20061;-88
2022/05/16 12:06:40;;;;;;;0.68;0.60;;;10.90;99.90;;;;;;4997830;28;20050;-87
2022/05/16 12:09:15;;;;;;;1.65;1.08;;;11.10;95.30;;;;;;4952624;28;20038;-87
2022/05/16 12:12:10;;;;;;;2.10;1.23;;;10.90;95.70;;;;;;4964903;28;20140;-86
2022/05/16 12:14:42;;;;;;;3.53;0.60;;;10.90;97.80;;;;;;4977086;28;20038;-87
2022/05/16 12:17:18;;;;;;;0.95;0.60;;;11.00;94.90;;;;;;4997725;28;20552;-86
2022/05/16 12:19:48;;;;;;;1.55;0.80;;;11.30;95.00;;;;;;4965051;28;20154;-88
2022/05/16 12:22:22;;;;;;;2.22;0.68;;;11.20;96.20;;;;;;4979911;28;20225;-86
2022/05/16 12:24:52;;;;;;;1.60;0.60;;;11.20;92.50;;;;;;4970573;28;20049;-88
2022/05/16 12:27:35;;;;;;;1.15;0.60;;;10.80;93.90;;;;;;4968755;28;20102;-87
2022/05/16 12:30:31;;;;;;;4.05;0.95;;;10.60;94.40;;;;;;4945202;28;20120;-89
2022/05/16 12:33:00;;;;;;;2.05;0.90;;;10.60;93.70;;;;;;4986335;28;20132;-90
2022/05/16 12:35:28;;;;;;;1.83;0.75;;;10.70;95.60;;;;;;4962235;28;20073;-87
2022/05/16 12:37:55;;;;;;;1.17;0.52;;;10.80;93.00;;;;;;4960809;28;20058;-86
2022/05/16 12:40:47;;;;;;;2.92;1.33;;;10.70;94.90;;;;;;4961472;28;20045;-87
2022/05/16 12:44:02;;;;;;;9.60;1.10;;;10.80;95.20;;;;;;4967547;28;20045;-86
2022/05/16 12:46:46;;;;;;;0.93;0.70;;;11.10;96.90;;;;;;4962651;28;20056;-87
2022/05/16 12:49:58;;;;;;;2.85;1.40;;;11.50;96.00;;;;;;4982312;28;20065;-87
2022/05/16 12:52:53;;;;;;;3.50;0.85;;;11.70;95.60;;;;;;4895136;28;20092;-84
2022/05/16 12:55:44;;;;;;;1.75;0.57;;;12.00;94.40;;;;;;4985033;28;20045;-86
2022/05/16 12:58:14;;;;;;;0.38;0.35;;;12.30;93.00;;;;;;4944503;28;20200;-86
2022/05/16 13:00:58;;;;;;;1.08;0.75;;;12.40;93.50;;;;;;4987919;28;20049;-85
2022/05/16 13:03:32;;;;;;;0.55;0.52;;;12.00;92.30;;;;;;4961768;28;20053;-87
2022/05/16 13:06:45;;;;;;;2.13;0.95;;;12.00;92.90;;;;;;4986006;28;20747;-87
2022/05/16 13:09:19;;;;;;;3.17;1.25;;;11.50;91.50;;;;;;4961554;28;20050;-88
2022/05/16 13:11:52;;;;;;;1.75;1.00;;;11.50;91.60;;;;;;4961571;28;20046;-87
2022/05/16 13:14:39;;;;;;;1.75;0.98;;;11.30;92.40;;;;;;4964725;28;20045;-87
2022/05/16 13:17:13;;;;;;;1.25;0.60;;;11.50;92.70;;;;;;4971588;28;20071;-86
2022/05/16 13:19:45;;;;;;;1.80;1.02;;;11.90;91.90;;;;;;4988882;28;20057;-85
2022/05/16 13:22:18;;;;;;;1.77;0.93;;;12.00;92.20;;;;;;4984280;28;20769;-85
2022/05/16 13:24:46;;;;;;;2.75;0.80;;;12.40;92.70;;;;;;4992020;28;20160;-86
2022/05/16 13:30:14;;;;;;;7.95;0.70;;;12.60;92.10;;;;;;4969729;28;22391;-86
2022/05/16 13:32:42;;;;;;;1.63;0.50;;;12.40;92.20;;;;;;4988976;28;20060;-86
2022/05/16 13:35:12;;;;;;;0.73;0.50;;;12.60;92.60;;;;;;4992750;28;21452;-86
2022/05/16 13:37:51;;;;;;;3.50;0.75;;;12.50;92.10;;;;;;4988529;28;20530;-85
2022/05/16 13:40:38;;;;;;;3.72;0.82;;;12.30;92.20;;;;;;4976231;28;20053;-85
2022/05/16 13:43:24;;;;;;;5.38;0.93;;;12.40;92.00;;;;;;4972649;28;20058;-86
2022/05/16 13:46:00;;;;;;;1.58;0.80;;;12.30;92.90;;;;;;4970144;28;20052;-85
2022/05/16 13:48:28;;;;;;;0.98;0.60;;;12.50;91.70;;;;;;4966867;28;20057;-85
2022/05/16 13:50:59;;;;;;;3.35;1.10;;;12.70;91.10;;;;;;4992194;28;20038;-85
2022/05/16 13:53:27;;;;;;;0.57;0.40;;;12.70;91.90;;;;;;4972157;28;20100;-86
2022/05/16 13:55:58;;;;;;;4.25;0.85;;;12.60;91.60;;;;;;4993705;28;20588;-87
2022/05/16 13:58:33;;;;;;;8.13;0.95;;;12.40;91.50;;;;;;4979142;28;20534;-86
2022/05/16 14:01:18;;;;;;;5.72;1.10;;;12.70;91.20;;;;;;4992214;28;20068;-85
2022/05/16 14:04:02;;;;;;;4.20;0.82;;;13.00;88.90;;;;;;4973473;28;20056;-85
2022/05/16 14:06:39;;;;;;;2.38;0.75;;;12.70;88.00;;;;;;4995456;28;20099;-85